Current Weather

Ambodedjo

Ambodedjo, Mali (GAMB)

Report from: Wednesday, May 29, 2024 7:00 AM GMT
Current time: Wednesday, May 29, 2024 7:56 AM GMT

Nearby weather – Weather history – Daily summaries
Weather forecast

Temperature31.0°C (87.8°F)
Heat index33.0°C (91.5°F)
Dew point20.0°C (68.0°F)
Winds 2 kts (1 m/s, 2.3 mph) Southwest (220°)
Clouds Sky clear
Altimeter29.88 in.Hg (1012 mB)
Relative humidity52 %
Density altitude2,189 ft. (667 m)
Remarks Ceiling and visibility OK
Flight conditions Visual Meteorological Conditions
Raw dataGAMB 290700Z 22002KT CAVOK 31/20 Q1012
An error has occurred. This application may no longer respond until reloaded. Reload 🗙